Sioux City, Iowa
Current Conditions -  °F | °C
As of 9:52 PM on Thursday 18 Dec 2014 (Local Time) from KSUX Reporting Station
Haze Haze  
Wind Chill: 22°   Ceiling: 1300
Heat Index: 30°   Visibility: 6mi
Dew Point: 26°   Wind: 9mph
Humidity: 85%   Direction: 160°SSE
Pressure: 30.22"   Gusts: NA
Location:  42.5°N, 96.42°W
Report Text: KSUX 190352Z 16008KT 6SM BR OVC013 M01/M03 A3022 RMK AO2 SLP249 T10111033
Loading
Personal Weather Stations






























Interactive Weather Map New forecast layout! Learn more

10-Day Weather Forecast

Advertisements
Track Severe Weather on mobile